This is the latest recevied weather packets stored in our database for station/object MB7IWY-13. If no packets are shown the sender has not sent any weather packets the latest 10 day(s).
| Time | Temp. | Humidity | Pressure | Rain* | Wind** | Luminosity | Snow |
|---|---|---|---|---|---|---|---|
| 1777161602 | 6.11° C | 87% | 1047.1 hPa | 0 mm | - | 0 W/m² | - |
| 1777160702 | 6.11° C | 87% | 1047.1 hPa | 0 mm | - | 0 W/m² | - |
| 1777160161 | 6.11° C | 87% | 1047.1 hPa | 0 mm | - | 0 W/m² | - |
| 1777159082 | 6.11° C | 88% | 1047.1 hPa | 0 mm | - | 0 W/m² | - |
| 1777157642 | 6.67° C | 87% | 1047.1 hPa | 0 mm | - | 0 W/m² | - |
| 1777156043 | 6.67° C | 86% | 1047.1 hPa | 0 mm | - | 0 W/m² | - |
| 1777155482 | 6.67° C | 86% | 1047.1 hPa | 0 mm | - | 0 W/m² | - |
| 1777154402 | 7.22° C | 85% | 1047.1 hPa | 0 mm | - | 0 W/m² | - |
| 1777153501 | 7.22° C | 85% | 1047.1 hPa | 0 mm | - | 0 W/m² | - |
| 1777150802 | 9.44° C | 80% | 1046.1 hPa | 0 mm | - | 0 W/m² | - |
| 1777148282 | 10° C | 80% | 1046.1 hPa | 0 mm | - | 0 W/m² | - |
| 1777147202 | 10.56° C | 79% | 1045 hPa | 0 mm | - | 0 W/m² | - |
| 1777146302 | 10.56° C | 79% | 1045 hPa | 0 mm | - | 0 W/m² | - |
| 1777145762 | 10.56° C | 79% | 1045 hPa | 0 mm | - | 0 W/m² | - |
| 1777141103 | 15° C | 69% | 1044 hPa | 0 mm | - | 0 W/m² | - |
| 1777131902 | 19.44° C | 41% | 1042 hPa | 0 mm | - | 0 W/m² | - |
| 1777130822 | 19.44° C | 41% | 1042 hPa | 0 mm | - | 0 W/m² | - |
| 1777130303 | 19.44° C | 41% | 1042 hPa | 0 mm | - | 0 W/m² | - |
| 1777129202 | 19.44° C | 41% | 1042 hPa | 0 mm | - | 0 W/m² | - |
| 1777127762 | 19.44° C | 41% | 1042 hPa | 0 mm | - | 0 W/m² | - |
| 1777126682 | 18.89° C | 43% | 1043 hPa | 0 mm | - | 0 W/m² | - |
| 1777125263 | 18.33° C | 44% | 1043 hPa | 0 mm | - | 0 W/m² | - |
| 1777121642 | 18.33° C | 38% | 1043 hPa | 0 mm | - | 0 W/m² | - |
| 1777118042 | 17.78° C | 37% | 1043 hPa | 0 mm | - | 0 W/m² | - |
| 1777116422 | 17.78° C | 38% | 1043 hPa | 0 mm | - | 0 W/m² | - |
* Rain latest hour (hover to see other rain measurements)
** Current wind speed in m/s (hover to see current wind gust speed)